sensor_id;sensor_type;location;lat;lon;timestamp;pressure;altitude;pressure_sealevel;temperature;humidity
54806;BME280;62866;55.776;37.496;2022-09-03T00:01:33;100302.56;;;7.62;77.95
54806;BME280;62866;55.776;37.496;2022-09-03T00:04:07;100311.38;;;7.62;77.59
54806;BME280;62866;55.776;37.496;2022-09-03T00:06:41;100311.56;;;7.61;78.09
54806;BME280;62866;55.776;37.496;2022-09-03T00:09:35;100314.69;;;7.56;78.21
54806;BME280;62866;55.776;37.496;2022-09-03T00:12:26;100321.97;;;7.54;78.17
54806;BME280;62866;55.776;37.496;2022-09-03T00:14:59;100319.50;;;7.53;78.15
54806;BME280;62866;55.776;37.496;2022-09-03T00:17:30;100327.63;;;7.51;78.29
54806;BME280;62866;55.776;37.496;2022-09-03T00:20:06;100332.41;;;7.48;78.41
54806;BME280;62866;55.776;37.496;2022-09-03T00:22:36;100336.06;;;7.47;78.77
54806;BME280;62866;55.776;37.496;2022-09-03T00:25:08;100339.72;;;7.46;78.88
54806;BME280;62866;55.776;37.496;2022-09-03T00:27:39;100343.34;;;7.45;78.86
54806;BME280;62866;55.776;37.496;2022-09-03T00:30:09;100341.88;;;7.42;78.99
54806;BME280;62866;55.776;37.496;2022-09-03T00:35:11;100349.47;;;7.37;79.09
54806;BME280;62866;55.776;37.496;2022-09-03T00:37:41;100350.63;;;7.35;79.26
54806;BME280;62866;55.776;37.496;2022-09-03T00:40:17;100355.09;;;7.34;79.52
54806;BME280;62866;55.776;37.496;2022-09-03T00:46:18;100354.72;;;7.29;79.64
54806;BME280;62866;55.776;37.496;2022-09-03T00:49:09;100366.66;;;7.25;79.91
54806;BME280;62866;55.776;37.496;2022-09-03T00:51:57;100365.13;;;7.22;79.66
54806;BME280;62866;55.776;37.496;2022-09-03T00:54:35;100366.44;;;7.18;79.84
54806;BME280;62866;55.776;37.496;2022-09-03T01:07:51;100373.19;;;7.13;80.61
54806;BME280;62866;55.776;37.496;2022-09-03T01:13:04;100376.69;;;7.13;80.65
54806;BME280;62866;55.776;37.496;2022-09-03T01:20:35;100368.19;;;7.10;80.35
54806;BME280;62866;55.776;37.496;2022-09-03T01:26:27;100382.06;;;7.04;81.04
54806;BME280;62866;55.776;37.496;2022-09-03T01:37:04;100386.03;;;7.00;81.05
54806;BME280;62866;55.776;37.496;2022-09-03T01:45:55;100394.84;;;7.00;80.95
54806;BME280;62866;55.776;37.496;2022-09-03T01:48:42;100397.50;;;7.00;81.02
54806;BME280;62866;55.776;37.496;2022-09-03T01:51:22;100411.63;;;7.01;80.99
54806;BME280;62866;55.776;37.496;2022-09-03T01:59:30;100420.38;;;6.93;81.27
54806;BME280;62866;55.776;37.496;2022-09-03T02:02:29;100422.69;;;6.96;81.62
54806;BME280;62866;55.776;37.496;2022-09-03T02:05:02;100417.53;;;6.95;81.48
54806;BME280;62866;55.776;37.496;2022-09-03T02:07:43;100422.19;;;6.93;81.55
54806;BME280;62866;55.776;37.496;2022-09-03T02:10:19;100426.66;;;6.92;81.47
54806;BME280;62866;55.776;37.496;2022-09-03T02:12:52;100432.97;;;6.91;81.73
54806;BME280;62866;55.776;37.496;2022-09-03T02:15:21;100432.97;;;6.91;81.25
54806;BME280;62866;55.776;37.496;2022-09-03T02:17:48;100436.59;;;6.90;81.83
54806;BME280;62866;55.776;37.496;2022-09-03T02:20:21;100438.03;;;6.84;81.66
54806;BME280;62866;55.776;37.496;2022-09-03T02:22:48;100443.22;;;6.86;81.88
54806;BME280;62866;55.776;37.496;2022-09-03T02:25:15;100450.34;;;6.85;81.66
54806;BME280;62866;55.776;37.496;2022-09-03T02:27:42;100440.69;;;6.84;82.02
54806;BME280;62866;55.776;37.496;2022-09-03T02:30:09;100426.47;;;6.76;82.25
54806;BME280;62866;55.776;37.496;2022-09-03T02:32:34;100436.78;;;6.79;81.96
54806;BME280;62866;55.776;37.496;2022-09-03T02:35:00;100446.59;;;6.78;81.97
54806;BME280;62866;55.776;37.496;2022-09-03T02:37:26;100428.59;;;6.72;81.96
54806;BME280;62866;55.776;37.496;2022-09-03T02:39:51;100438.09;;;6.75;82.00
54806;BME280;62866;55.776;37.496;2022-09-03T02:42:17;100450.09;;;6.79;82.04
54806;BME280;62866;55.776;37.496;2022-09-03T02:44:51;100445.75;;;6.78;82.26
54806;BME280;62866;55.776;37.496;2022-09-03T02:47:17;100444.09;;;6.77;82.21
54806;BME280;62866;55.776;37.496;2022-09-03T02:49:47;100435.72;;;6.72;82.13
54806;BME280;62866;55.776;37.496;2022-09-03T02:52:13;100452.06;;;6.77;82.05
54806;BME280;62866;55.776;37.496;2022-09-03T02:54:39;100446.91;;;6.75;82.24
54806;BME280;62866;55.776;37.496;2022-09-03T02:57:11;100456.56;;;6.76;82.04
54806;BME280;62866;55.776;37.496;2022-09-03T02:59:38;100455.56;;;6.77;82.14
54806;BME280;62866;55.776;37.496;2022-09-03T03:02:06;100453.91;;;6.76;81.88
54806;BME280;62866;55.776;37.496;2022-09-03T03:04:32;100463.69;;;6.76;82.12
54806;BME280;62866;55.776;37.496;2022-09-03T03:06:57;100463.53;;;6.77;82.07
54806;BME280;62866;55.776;37.496;2022-09-03T03:09:23;100461.88;;;6.76;82.36
54806;BME280;62866;55.776;37.496;2022-09-03T03:11:49;100467.31;;;6.75;82.12
54806;BME280;62866;55.776;37.496;2022-09-03T03:14:16;100475.16;;;6.76;81.95
54806;BME280;62866;55.776;37.496;2022-09-03T03:16:41;100469.44;;;6.71;81.93
54806;BME280;62866;55.776;37.496;2022-09-03T03:19:07;100473.34;;;6.77;82.35
54806;BME280;62866;55.776;37.496;2022-09-03T03:21:33;100476.84;;;6.77;82.05
54806;BME280;62866;55.776;37.496;2022-09-03T03:24:00;100476.84;;;6.77;82.16
54806;BME280;62866;55.776;37.496;2022-09-03T03:26:25;100472.63;;;6.75;81.91
54806;BME280;62866;55.776;37.496;2022-09-03T03:28:55;100474.59;;;6.73;82.08
54806;BME280;62866;55.776;37.496;2022-09-03T03:31:21;100474.88;;;6.70;82.05
54806;BME280;62866;55.776;37.496;2022-09-03T03:33:51;100491.09;;;6.76;82.23
54806;BME280;62866;55.776;37.496;2022-09-03T03:36:17;100484.41;;;6.72;82.03
54806;BME280;62866;55.776;37.496;2022-09-03T03:38:44;100490.13;;;6.77;81.65
54806;BME280;62866;55.776;37.496;2022-09-03T03:43:36;100495.13;;;6.80;81.75
54806;BME280;62866;55.776;37.496;2022-09-03T03:46:02;100491.19;;;6.84;81.58
54806;BME280;62866;55.776;37.496;2022-09-03T03:48:27;100487.25;;;6.89;81.62
54806;BME280;62866;55.776;37.496;2022-09-03T03:50:53;100495.47;;;6.95;81.50
54806;BME280;62866;55.776;37.496;2022-09-03T03:53:19;100496.16;;;6.97;81.49
54806;BME280;62866;55.776;37.496;2022-09-03T03:55:58;100499.31;;;7.10;81.28
54806;BME280;62866;55.776;37.496;2022-09-03T03:58:24;100498.56;;;7.18;80.85
54806;BME280;62866;55.776;37.496;2022-09-03T04:00:51;100491.06;;;7.31;80.78
54806;BME280;62866;55.776;37.496;2022-09-03T04:03:17;100495.84;;;7.45;80.14
54806;BME280;62866;55.776;37.496;2022-09-03T04:05:53;100499.19;;;7.47;80.16
54806;BME280;62866;55.776;37.496;2022-09-03T04:08:18;100502.63;;;7.57;80.30
54806;BME280;62866;55.776;37.496;2022-09-03T04:10:44;100516.31;;;7.62;79.87
54806;BME280;62866;55.776;37.496;2022-09-03T04:13:09;100512.28;;;7.76;79.39
54806;BME280;62866;55.776;37.496;2022-09-03T04:15:35;100498.91;;;7.86;79.19
54806;BME280;62866;55.776;37.496;2022-09-03T04:18:01;100509.97;;;7.99;78.85
54806;BME280;62866;55.776;37.496;2022-09-03T04:20:27;100493.03;;;8.00;78.83
54806;BME280;62866;55.776;37.496;2022-09-03T04:22:52;100505.38;;;8.27;78.25
54806;BME280;62866;55.776;37.496;2022-09-03T04:25:17;100509.13;;;8.34;78.37
54806;BME280;62866;55.776;37.496;2022-09-03T04:27:43;100514.69;;;8.49;77.89
54806;BME280;62866;55.776;37.496;2022-09-03T04:30:09;100517.97;;;8.68;77.36
54806;BME280;62866;55.776;37.496;2022-09-03T04:32:34;100513.00;;;8.73;77.03
54806;BME280;62866;55.776;37.496;2022-09-03T04:35:19;100528.19;;;8.81;77.14
54806;BME280;62866;55.776;37.496;2022-09-03T04:37:45;100524.59;;;8.90;76.90
54806;BME280;62866;55.776;37.496;2022-09-03T04:40:11;100527.78;;;8.94;76.35
54806;BME280;62866;55.776;37.496;2022-09-03T04:42:37;100517.19;;;9.10;76.21
54806;BME280;62866;55.776;37.496;2022-09-03T04:45:03;100520.38;;;9.22;75.69
54806;BME280;62866;55.776;37.496;2022-09-03T04:47:28;100524.56;;;9.32;75.48
54806;BME280;62866;55.776;37.496;2022-09-03T04:49:54;100515.72;;;9.32;75.14
54806;BME280;62866;55.776;37.496;2022-09-03T04:52:20;100495.03;;;9.26;74.99
54806;BME280;62866;55.776;37.496;2022-09-03T04:54:45;100521.59;;;9.35;74.89
54806;BME280;62866;55.776;37.496;2022-09-03T04:57:11;100517.38;;;9.25;75.35
54806;BME280;62866;55.776;37.496;2022-09-03T04:59:37;100520.75;;;9.35;75.17
54806;BME280;62866;55.776;37.496;2022-09-03T05:02:03;100519.91;;;9.34;75.02
54806;BME280;62866;55.776;37.496;2022-09-03T05:04:28;100520.41;;;9.38;74.97
54806;BME280;62866;55.776;37.496;2022-09-03T05:06:53;100532.28;;;9.43;75.01
54806;BME280;62866;55.776;37.496;2022-09-03T05:09:19;100523.31;;;9.52;74.61
54806;BME280;62866;55.776;37.496;2022-09-03T05:11:45;100530.13;;;9.55;74.87
54806;BME280;62866;55.776;37.496;2022-09-03T05:14:11;100536.00;;;9.75;73.99
54806;BME280;62866;55.776;37.496;2022-09-03T05:16:37;100534.69;;;9.87;74.21
54806;BME280;62866;55.776;37.496;2022-09-03T05:19:02;100532.03;;;10.03;73.33
54806;BME280;62866;55.776;37.496;2022-09-03T05:21:31;100531.00;;;9.96;73.12
54806;BME280;62866;55.776;37.496;2022-09-03T05:23:58;100520.16;;;9.89;73.11
54806;BME280;62866;55.776;37.496;2022-09-03T05:26:26;100531.84;;;9.88;73.36
54806;BME280;62866;55.776;37.496;2022-09-03T05:28:53;100541.22;;;10.09;73.15
54806;BME280;62866;55.776;37.496;2022-09-03T05:31:21;100541.38;;;10.07;73.20
54806;BME280;62866;55.776;37.496;2022-09-03T05:33:51;100546.41;;;10.10;73.04
54806;BME280;62866;55.776;37.496;2022-09-03T05:36:19;100546.63;;;11.89;68.96
54806;BME280;62866;55.776;37.496;2022-09-03T05:38:46;100540.28;;;12.65;65.77
54806;BME280;62866;55.776;37.496;2022-09-03T05:41:12;100545.81;;;12.64;65.65
54806;BME280;62866;55.776;37.496;2022-09-03T05:43:39;100549.09;;;12.88;65.10
54806;BME280;62866;55.776;37.496;2022-09-03T05:46:07;100547.97;;;13.12;64.65
54806;BME280;62866;55.776;37.496;2022-09-03T05:48:34;100557.81;;;13.71;64.14
54806;BME280;62866;55.776;37.496;2022-09-03T05:51:02;100549.28;;;15.14;60.34
54806;BME280;62866;55.776;37.496;2022-09-03T05:53:29;100546.03;;;16.00;58.20
54806;BME280;62866;55.776;37.496;2022-09-03T05:55:59;100547.44;;;15.69;58.03
54806;BME280;62866;55.776;37.496;2022-09-03T05:58:33;100556.59;;;15.34;59.50
54806;BME280;62866;55.776;37.496;2022-09-03T06:00:59;100553.69;;;15.35;59.87
54806;BME280;62866;55.776;37.496;2022-09-03T06:03:25;100566.19;;;16.17;57.43
54806;BME280;62866;55.776;37.496;2022-09-03T06:05:52;100556.00;;;16.91;55.64
54806;BME280;62866;55.776;37.496;2022-09-03T06:08:19;100565.03;;;17.36;54.75
54806;BME280;62866;55.776;37.496;2022-09-03T06:10:45;100568.34;;;17.83;53.63
54806;BME280;62866;55.776;37.496;2022-09-03T06:13:11;100567.78;;;19.48;49.96
54806;BME280;62866;55.776;37.496;2022-09-03T06:15:37;100571.47;;;20.25;47.50
54806;BME280;62866;55.776;37.496;2022-09-03T06:18:03;100570.00;;;19.99;48.16
54806;BME280;62866;55.776;37.496;2022-09-03T06:20:28;100563.19;;;18.87;50.14
54806;BME280;62866;55.776;37.496;2022-09-03T06:22:55;100564.22;;;18.68;50.67
54806;BME280;62866;55.776;37.496;2022-09-03T06:25:20;100569.66;;;18.86;49.88
54806;BME280;62866;55.776;37.496;2022-09-03T06:27:46;100571.47;;;18.18;51.10
54806;BME280;62866;55.776;37.496;2022-09-03T06:30:13;100568.41;;;17.76;52.03
54806;BME280;62866;55.776;37.496;2022-09-03T06:32:44;100570.56;;;17.55;51.82
54806;BME280;62866;55.776;37.496;2022-09-03T06:35:10;100565.66;;;17.25;52.66
54806;BME280;62866;55.776;37.496;2022-09-03T06:37:40;100569.75;;;16.77;52.94
54806;BME280;62866;55.776;37.496;2022-09-03T06:40:06;100573.03;;;16.32;53.96
54806;BME280;62866;55.776;37.496;2022-09-03T06:42:33;100577.84;;;16.57;53.64
54806;BME280;62866;55.776;37.496;2022-09-03T06:44:59;100566.34;;;17.72;50.79
54806;BME280;62866;55.776;37.496;2022-09-03T06:47:24;100563.53;;;19.16;47.64
54806;BME280;62866;55.776;37.496;2022-09-03T06:49:50;100563.53;;;19.52;46.46
54806;BME280;62866;55.776;37.496;2022-09-03T06:52:16;100569.41;;;18.70;47.34
54806;BME280;62866;55.776;37.496;2022-09-03T06:54:41;100571.00;;;17.96;49.00
54806;BME280;62866;55.776;37.496;2022-09-03T06:57:06;100584.09;;;17.55;49.63
54806;BME280;62866;55.776;37.496;2022-09-03T06:59:32;100579.59;;;17.29;49.99
54806;BME280;62866;55.776;37.496;2022-09-03T07:01:57;100583.84;;;16.85;50.77
54806;BME280;62866;55.776;37.496;2022-09-03T07:04:25;100597.34;;;16.39;51.94
54806;BME280;62866;55.776;37.496;2022-09-03T07:06:51;100580.94;;;16.21;51.99
54806;BME280;62866;55.776;37.496;2022-09-03T07:09:16;100580.72;;;16.22;52.20
54806;BME280;62866;55.776;37.496;2022-09-03T07:11:43;100579.06;;;16.35;52.05
54806;BME280;62866;55.776;37.496;2022-09-03T07:14:13;100584.88;;;16.58;51.78
54806;BME280;62866;55.776;37.496;2022-09-03T07:16:39;100579.09;;;16.81;51.00
54806;BME280;62866;55.776;37.496;2022-09-03T07:19:06;100578.16;;;17.26;50.55
54806;BME280;62866;55.776;37.496;2022-09-03T07:21:34;100574.59;;;17.83;49.03
54806;BME280;62866;55.776;37.496;2022-09-03T07:24:04;100578.72;;;18.24;48.26
54806;BME280;62866;55.776;37.496;2022-09-03T07:26:39;100569.72;;;18.55;48.05
54806;BME280;62866;55.776;37.496;2022-09-03T07:29:06;100577.38;;;19.62;46.24
54806;BME280;62866;55.776;37.496;2022-09-03T07:31:37;100581.59;;;21.18;45.17
54806;BME280;62866;55.776;37.496;2022-09-03T07:34:08;100585.25;;;22.49;41.39
54806;BME280;62866;55.776;37.496;2022-09-03T07:36:37;100572.28;;;22.73;40.50
54806;BME280;62866;55.776;37.496;2022-09-03T07:39:11;100575.06;;;22.27;40.99
54806;BME280;62866;55.776;37.496;2022-09-03T07:41:37;100580.81;;;21.86;41.41
54806;BME280;62866;55.776;37.496;2022-09-03T07:44:03;100584.75;;;21.78;41.64
54806;BME280;62866;55.776;37.496;2022-09-03T07:46:34;100587.75;;;22.67;39.54
54806;BME280;62866;55.776;37.496;2022-09-03T07:49:01;100577.91;;;23.21;38.67
54806;BME280;62866;55.776;37.496;2022-09-03T07:51:29;100572.75;;;23.41;38.05
54806;BME280;62866;55.776;37.496;2022-09-03T07:53:57;100576.66;;;22.74;38.53
54806;BME280;62866;55.776;37.496;2022-09-03T07:56:25;100569.91;;;23.53;37.70
54806;BME280;62866;55.776;37.496;2022-09-03T07:58:51;100568.06;;;22.98;37.58
54806;BME280;62866;55.776;37.496;2022-09-03T08:01:19;100580.13;;;22.69;38.25
54806;BME280;62866;55.776;37.496;2022-09-03T08:03:50;100574.66;;;21.62;39.79
54806;BME280;62866;55.776;37.496;2022-09-03T08:06:17;100568.38;;;21.22;40.22
54806;BME280;62866;55.776;37.496;2022-09-03T08:08:43;100569.88;;;21.29;40.25
54806;BME280;62866;55.776;37.496;2022-09-03T08:11:12;100563.50;;;21.12;40.55
54806;BME280;62866;55.776;37.496;2022-09-03T08:13:43;100571.31;;;20.85;41.17
54806;BME280;62866;55.776;37.496;2022-09-03T08:16:11;100580.31;;;20.62;41.60
54806;BME280;62866;55.776;37.496;2022-09-03T08:18:37;100581.88;;;20.28;41.16
54806;BME280;62866;55.776;37.496;2022-09-03T08:21:12;100579.19;;;19.14;43.01
54806;BME280;62866;55.776;37.496;2022-09-03T08:23:46;100582.69;;;19.87;41.86
54806;BME280;62866;55.776;37.496;2022-09-03T08:26:13;100564.47;;;20.59;40.80
54806;BME280;62866;55.776;37.496;2022-09-03T08:28:40;100567.91;;;21.25;39.91
54806;BME280;62866;55.776;37.496;2022-09-03T08:33:37;100565.41;;;21.23;40.23
54806;BME280;62866;55.776;37.496;2022-09-03T08:38:37;100555.94;;;21.66;38.97
54806;BME280;62866;55.776;37.496;2022-09-03T08:46:45;100548.75;;;20.61;40.54
54806;BME280;62866;55.776;37.496;2022-09-03T08:49:13;100562.81;;;20.47;39.80
54806;BME280;62866;55.776;37.496;2022-09-03T08:51:41;100567.53;;;20.39;39.82
54806;BME280;62866;55.776;37.496;2022-09-03T08:54:09;100567.13;;;19.64;40.91
54806;BME280;62866;55.776;37.496;2022-09-03T08:56:38;100559.53;;;19.18;41.63
54806;BME280;62866;55.776;37.496;2022-09-03T08:59:05;100556.59;;;19.02;42.05
54806;BME280;62866;55.776;37.496;2022-09-03T09:04:21;100554.31;;;18.80;43.11
54806;BME280;62866;55.776;37.496;2022-09-03T09:12:16;100557.34;;;18.16;43.38
54806;BME280;62866;55.776;37.496;2022-09-03T09:20:14;100551.84;;;16.95;43.71
54806;BME280;62866;55.776;37.496;2022-09-03T09:22:51;100533.38;;;16.59;43.29
54806;BME280;62866;55.776;37.496;2022-09-03T09:25:21;100551.25;;;16.80;42.84
54806;BME280;62866;55.776;37.496;2022-09-03T09:28:12;100555.84;;;16.47;43.70
54806;BME280;62866;55.776;37.496;2022-09-03T09:30:39;100559.56;;;16.46;43.95
54806;BME280;62866;55.776;37.496;2022-09-03T09:33:06;100556.22;;;16.11;43.93
54806;BME280;62866;55.776;37.496;2022-09-03T09:35:32;100555.97;;;15.79;44.58
54806;BME280;62866;55.776;37.496;2022-09-03T09:37:57;100563.25;;;15.99;44.64
54806;BME280;62866;55.776;37.496;2022-09-03T09:40:30;100557.25;;;16.03;43.86
54806;BME280;62866;55.776;37.496;2022-09-03T09:45:45;100552.50;;;16.38;43.57
54806;BME280;62866;55.776;37.496;2022-09-03T09:48:46;100530.50;;;16.67;43.08
54806;BME280;62866;55.776;37.496;2022-09-03T09:51:24;100538.16;;;16.84;42.43
54806;BME280;62866;55.776;37.496;2022-09-03T09:56:37;100519.50;;;16.69;42.62
54806;BME280;62866;55.776;37.496;2022-09-03T09:59:05;100530.03;;;16.84;42.16
54806;BME280;62866;55.776;37.496;2022-09-03T10:01:31;100535.88;;;16.87;41.80
54806;BME280;62866;55.776;37.496;2022-09-03T10:03:58;100530.09;;;16.64;42.85
54806;BME280;62866;55.776;37.496;2022-09-03T10:06:29;100531.31;;;16.68;42.12
54806;BME280;62866;55.776;37.496;2022-09-03T10:09:24;100520.28;;;16.89;41.92
54806;BME280;62866;55.776;37.496;2022-09-03T10:14:36;100521.75;;;16.79;41.86
54806;BME280;62866;55.776;37.496;2022-09-03T10:17:29;100520.53;;;16.42;43.03
54806;BME280;62866;55.776;37.496;2022-09-03T10:19:59;100527.81;;;16.15;43.05
54806;BME280;62866;55.776;37.496;2022-09-03T10:22:56;100529.63;;;15.81;43.53
54806;BME280;62866;55.776;37.496;2022-09-03T10:28:04;100534.13;;;15.54;43.68
54806;BME280;62866;55.776;37.496;2022-09-03T10:30:42;100536.78;;;15.48;43.85
54806;BME280;62866;55.776;37.496;2022-09-03T10:33:17;100530.59;;;15.61;43.40
54806;BME280;62866;55.776;37.496;2022-09-03T10:35:51;100539.16;;;15.84;43.24
54806;BME280;62866;55.776;37.496;2022-09-03T10:38:31;100536.50;;;16.17;42.63
54806;BME280;62866;55.776;37.496;2022-09-03T10:49:39;100543.78;;;16.29;43.05
54806;BME280;62866;55.776;37.496;2022-09-03T10:55:12;100541.91;;;15.97;43.46
54806;BME280;62866;55.776;37.496;2022-09-03T11:00:08;100542.72;;;16.17;43.20
54806;BME280;62866;55.776;37.496;2022-09-03T11:05:21;100545.44;;;16.17;43.52
54806;BME280;62866;55.776;37.496;2022-09-03T11:07:53;100537.13;;;16.06;43.83
54806;BME280;62866;55.776;37.496;2022-09-03T11:10:31;100544.53;;;15.71;45.06
54806;BME280;62866;55.776;37.496;2022-09-03T11:18:19;100534.47;;;15.45;45.12
54806;BME280;62866;55.776;37.496;2022-09-03T11:20:48;100536.97;;;15.53;45.26
54806;BME280;62866;55.776;37.496;2022-09-03T11:23:15;100539.91;;;15.58;44.81
54806;BME280;62866;55.776;37.496;2022-09-03T11:25:50;100546.97;;;15.59;45.22
54806;BME280;62866;55.776;37.496;2022-09-03T11:28:21;100546.16;;;15.59;46.04
54806;BME280;62866;55.776;37.496;2022-09-03T11:33:57;100514.88;;;15.90;45.73
54806;BME280;62866;55.776;37.496;2022-09-03T11:36:35;100538.16;;;16.24;45.07
54806;BME280;62866;55.776;37.496;2022-09-03T11:44:49;100521.94;;;15.72;46.78
54806;BME280;62866;55.776;37.496;2022-09-03T11:49:46;100513.81;;;15.65;47.16
54806;BME280;62866;55.776;37.496;2022-09-03T11:52:28;100507.81;;;15.63;47.36
54806;BME280;62866;55.776;37.496;2022-09-03T11:54:54;100507.19;;;15.68;47.21
54806;BME280;62866;55.776;37.496;2022-09-03T11:57:30;100501.59;;;15.76;46.91
54806;BME280;62866;55.776;37.496;2022-09-03T12:00:14;100497.03;;;15.83;47.19
54806;BME280;62866;55.776;37.496;2022-09-03T12:03:03;100499.94;;;15.68;47.51
54806;BME280;62866;55.776;37.496;2022-09-03T12:05:52;100497.03;;;15.63;47.17
54806;BME280;62866;55.776;37.496;2022-09-03T12:11:39;100503.44;;;15.55;47.16
54806;BME280;62866;55.776;37.496;2022-09-03T12:22:00;100486.69;;;15.80;47.04
54806;BME280;62866;55.776;37.496;2022-09-03T12:24:30;100479.41;;;15.67;47.03
54806;BME280;62866;55.776;37.496;2022-09-03T12:27:00;100483.84;;;15.40;47.50
54806;BME280;62866;55.776;37.496;2022-09-03T12:29:28;100487.72;;;15.18;47.99
54806;BME280;62866;55.776;37.496;2022-09-03T12:31:55;100491.38;;;14.97;48.61
54806;BME280;62866;55.776;37.496;2022-09-03T12:34:22;100487.78;;;14.84;48.97
54806;BME280;62866;55.776;37.496;2022-09-03T12:36:50;100481.34;;;14.78;48.54
54806;BME280;62866;55.776;37.496;2022-09-03T12:39:20;100488.56;;;14.77;48.41
54806;BME280;62866;55.776;37.496;2022-09-03T12:44:28;100473.75;;;14.95;48.13
54806;BME280;62866;55.776;37.496;2022-09-03T12:49:42;100468.00;;;15.04;47.67
54806;BME280;62866;55.776;37.496;2022-09-03T12:57:26;100457.81;;;15.00;48.47
54806;BME280;62866;55.776;37.496;2022-09-03T12:59:57;100453.47;;;14.99;48.26
54806;BME280;62866;55.776;37.496;2022-09-03T13:03:20;100463.16;;;14.87;47.76
54806;BME280;62866;55.776;37.496;2022-09-03T13:05:32;100461.66;;;14.77;47.56
54806;BME280;62866;55.776;37.496;2022-09-03T13:08:01;100459.41;;;14.81;47.40
54806;BME280;62866;55.776;37.496;2022-09-03T13:10:38;100447.00;;;14.87;47.25
54806;BME280;62866;55.776;37.496;2022-09-03T13:13:29;100448.06;;;14.92;47.56
54806;BME280;62866;55.776;37.496;2022-09-03T13:19:00;100448.06;;;14.92;47.75
54806;BME280;62866;55.776;37.496;2022-09-03T13:21:37;100453.69;;;14.97;47.66
54806;BME280;62866;55.776;37.496;2022-09-03T13:24:38;100451.66;;;15.06;47.67
54806;BME280;62866;55.776;37.496;2022-09-03T13:27:42;100440.44;;;15.09;47.02
54806;BME280;62866;55.776;37.496;2022-09-03T13:30:19;100441.72;;;15.13;46.94
54806;BME280;62866;55.776;37.496;2022-09-03T13:33:19;100449.63;;;15.28;46.36
54806;BME280;62866;55.776;37.496;2022-09-03T13:35:48;100439.06;;;15.33;46.33
54806;BME280;62866;55.776;37.496;2022-09-03T13:38:50;100431.41;;;15.36;46.40
54806;BME280;62866;55.776;37.496;2022-09-03T13:41:42;100443.03;;;15.43;45.89
54806;BME280;62866;55.776;37.496;2022-09-03T13:44:11;100440.41;;;15.63;45.54
54806;BME280;62866;55.776;37.496;2022-09-03T13:46:45;100427.53;;;15.65;45.48
54806;BME280;62866;55.776;37.496;2022-09-03T13:49:26;100431.31;;;15.64;46.22
54806;BME280;62866;55.776;37.496;2022-09-03T13:52:36;100412.00;;;15.54;45.75
54806;BME280;62866;55.776;37.496;2022-09-03T13:55:15;100425.47;;;15.54;45.76
54806;BME280;62866;55.776;37.496;2022-09-03T14:00:33;100427.34;;;15.53;45.83
54806;BME280;62866;55.776;37.496;2022-09-03T14:08:56;100411.59;;;15.70;45.47
54806;BME280;62866;55.776;37.496;2022-09-03T14:11:28;100404.13;;;15.66;45.65
54806;BME280;62866;55.776;37.496;2022-09-03T14:14:11;100402.06;;;15.61;45.90
54806;BME280;62866;55.776;37.496;2022-09-03T14:16:52;100403.72;;;15.55;46.12
54806;BME280;62866;55.776;37.496;2022-09-03T14:22:06;100387.00;;;15.06;46.78
54806;BME280;62866;55.776;37.496;2022-09-03T14:24:56;100404.59;;;15.02;47.23
54806;BME280;62866;55.776;37.496;2022-09-03T14:27:30;100401.03;;;14.88;47.53
54806;BME280;62866;55.776;37.496;2022-09-03T14:30:02;100399.34;;;14.80;47.46
54806;BME280;62866;55.776;37.496;2022-09-03T14:32:39;100408.84;;;14.76;48.16
54806;BME280;62866;55.776;37.496;2022-09-03T14:35:27;100400.13;;;14.74;48.11
54806;BME280;62866;55.776;37.496;2022-09-03T14:38:14;100400.56;;;14.71;48.27
54806;BME280;62866;55.776;37.496;2022-09-03T14:40:46;100394.72;;;14.68;47.72
54806;BME280;62866;55.776;37.496;2022-09-03T14:43:51;100407.38;;;14.74;48.07
54806;BME280;62866;55.776;37.496;2022-09-03T14:46:45;100401.16;;;14.73;48.11
54806;BME280;62866;55.776;37.496;2022-09-03T15:05:03;100387.28;;;14.63;48.11
54806;BME280;62866;55.776;37.496;2022-09-03T15:07:58;100387.03;;;14.65;48.09
54806;BME280;62866;55.776;37.496;2022-09-03T15:12:58;100389.50;;;14.60;48.40
54806;BME280;62866;55.776;37.496;2022-09-03T15:18:49;100389.25;;;14.48;48.91
54806;BME280;62866;55.776;37.496;2022-09-03T15:32:21;100374.16;;;14.19;50.51
54806;BME280;62866;55.776;37.496;2022-09-03T15:37:44;100373.66;;;14.02;50.37
54806;BME280;62866;55.776;37.496;2022-09-03T15:40:27;100375.88;;;13.99;50.66
54806;BME280;62866;55.776;37.496;2022-09-03T15:42:59;100378.34;;;13.94;50.75
54806;BME280;62866;55.776;37.496;2022-09-03T15:51:05;100386.66;;;13.71;52.12
54806;BME280;62866;55.776;37.496;2022-09-03T15:54:00;100385.50;;;13.59;51.73
54806;BME280;62866;55.776;37.496;2022-09-03T15:56:54;100387.06;;;13.47;52.91
54806;BME280;62866;55.776;37.496;2022-09-03T15:59:47;100385.53;;;13.38;52.63
54806;BME280;62866;55.776;37.496;2022-09-03T16:05:06;100381.66;;;13.25;53.43
54806;BME280;62866;55.776;37.496;2022-09-03T16:07:45;100378.28;;;13.17;53.80
54806;BME280;62866;55.776;37.496;2022-09-03T16:10:19;100381.50;;;13.12;54.33
54806;BME280;62866;55.776;37.496;2022-09-03T16:15:37;100378.84;;;12.98;55.30
54806;BME280;62866;55.776;37.496;2022-09-03T16:23:27;100381.16;;;12.79;55.68
54806;BME280;62866;55.776;37.496;2022-09-03T16:26:29;100395.50;;;12.72;55.59
54806;BME280;62866;55.776;37.496;2022-09-03T16:29:10;100393.09;;;12.62;56.78
54806;BME280;62866;55.776;37.496;2022-09-03T16:32:04;100391.53;;;12.53;56.88
54806;BME280;62866;55.776;37.496;2022-09-03T16:34:42;100391.47;;;12.46;56.72